Latest Weather Observations for Albury

IDN60801

Issued at 6:23 pm EST Saturday 9 May 2026 (issued every 10 minutes, with the page automatically refreshed every 10 minutes)

About weather observations | Map of weather stations | Latest weather observations for NSW | Other Formats
Station Details ID: 072160 Name: ALBURY AIRPORT AWS Lat: -36.07 Lon: 146.95 Height: 163.5 m
Data from the previous 72 hours. | See also: Recent months at Albury
Date/Time
EST
Temp
°C
App
Temp
°C
Dew
Point
°C
Rel
Hum
%
Delta-T
°C
Wind Press
QNH
hPa
Press
MSL
hPa
Rain since
9am
mm
Dir  Spd
km/h
Gust
km/h
Spd
kts
Gust
kts
09/06:00pm 13.1 11.6 8.6 74 2.3 W 6 7 3 4 1025.5 1025.5 0.0
09/05:30pm 14.3 12.8 9.1 71 2.7 W 7 11 4 6 1025.1 1025.1 0.0
09/05:00pm 15.6 13.3 9.1 65 3.3 WSW 11 13 6 7 1024.8 1024.8 0.0
09/04:30pm 17.5 16.0 9.2 58 4.4 WSW 7 11 4 6 1024.6 1024.6 0.0
09/04:00pm 17.9 16.4 9.0 56 4.6 WNW 7 11 4 6 1024.4 1024.4 0.0
09/03:30pm 18.0 16.2 8.0 52 5.1 SW 7 11 4 6 1024.5 1024.5 0.0
09/03:00pm 18.0 16.4 8.0 52 5.1 SW 6 9 3 5 1024.5 1024.5 0.0
09/02:30pm 18.3 16.8 8.3 52 5.2 SSW 6 9 3 5 1024.6 1024.6 0.0
09/02:00pm 17.4 16.2 8.0 54 4.8 NNW 4 7 2 4 1024.6 1024.6 0.0
09/01:30pm 17.4 16.2 8.0 54 4.8 NE 4 7 2 4 1024.8 1024.8 0.0
09/01:00pm 16.8 15.6 8.0 56 4.5 NNE 4 7 2 4 1025.3 1025.3 0.0
09/12:30pm 15.4 13.9 9.3 67 3.2 SSE 7 11 4 6 1025.8 1025.8 0.0
09/12:00pm 14.6 13.1 9.0 69 2.9 SE 7 11 4 6 1026.1 1026.1 0.0
09/11:30am 14.1 12.9 9.7 75 2.3 E 6 9 3 5 1026.4 1026.4 0.0
09/11:00am 12.9 11.5 9.0 77 2.0 E 6 9 3 5 1026.6 1026.6 0.0
09/10:30am 11.6 10.1 8.6 82 1.5 SE 6 11 3 6 1026.7 1026.7 0.0
09/10:10am 10.9 9.5 8.8 87 1.0 ESE 6 9 3 5 1026.7 1026.7 0.0
09/10:00am 10.7 10.3 9.6 93 0.6 NE 2 7 1 4 1026.8 1026.8 0.0
09/09:30am 8.4 7.2 8.1 98 0.1 NNE 4 7 2 4 1026.8 1026.8 0.0
09/09:23am 8.1 6.9 8.0 99 0.0 ENE 4 7 2 4 1026.9 1026.9 0.0
09/09:00am 7.7 6.8 7.6 99 0.0 ENE 2 7 1 4 1026.9 1026.9 0.0
09/08:50am 7.7 6.8 7.6 99 0.0 WSW 2 6 1 3 1026.8 1026.8 0.0
09/08:30am 7.4 6.4 7.3 99 0.0 E 2 6 1 3 1026.6 1026.6 0.0
09/08:00am 7.3 6.7 7.2 99 0.0 CALM 0 0 0 0 1026.2 1026.2 0.0
09/07:56am 7.1 6.4 7.0 99 0.0 CALM 0 0 0 0 1026.2 1026.2 0.0
09/07:47am 7.0 6.2 6.7 98 0.1 CALM 0 0 0 0 1026.0 1026.0 0.0
09/07:30am 6.7 5.9 6.4 98 0.1 CALM 0 0 0 0 1025.9 1025.9 0.0
09/07:00am 6.0 5.1 5.9 99 0.0 CALM 0 0 0 0 1025.7 1025.7 0.0
09/06:52am 5.8 4.8 5.7 99 0.0 CALM 0 0 0 0 1025.6 1025.6 0.0
09/06:30am 5.2 4.1 4.9 98 0.1 CALM 0 0 0 0 1025.4 1025.4 0.0
09/06:00am 5.0 3.8 4.7 98 0.1 CALM 0 0 0 0 1025.1 1025.1 0.0
09/05:56am 5.0 3.8 4.7 98 0.1 CALM 0 0 0 0 1025.1 1025.1 0.0
09/05:43am 4.6 3.3 4.3 98 0.1 CALM 0 0 0 0 1025.0 1025.0 0.0
09/05:30am 4.3 2.2 3.9 97 0.2 NNW 4 7 2 4 1024.8 1024.8 0.0
09/05:13am 4.4 3.1 4.0 97 0.2 CALM 0 6 0 3 1024.5 1024.5 0.0
09/05:00am 5.1 3.9 4.8 98 0.1 CALM 0 0 0 0 1024.3 1024.3 0.0
09/04:30am 5.2 3.3 4.8 97 0.2 NNW 4 7 2 4 1024.0 1024.0 0.0
09/04:00am 5.1 3.9 4.4 95 0.3 CALM 0 0 0 0 1024.0 1024.0 0.0
09/03:30am 6.2 4.5 5.8 97 0.2 NNW 4 6 2 3 1024.0 1024.0 0.0
09/03:00am 5.8 4.7 5.2 96 0.3 CALM 0 0 0 0 1024.0 1024.0 0.0
09/02:30am 6.6 4.9 5.9 95 0.3 NNW 4 9 2 5 1023.9 1023.9 0.0
09/02:00am 7.1 6.3 6.4 95 0.3 CALM 0 0 0 0 1024.0 1024.0 0.0
09/01:30am 7.1 4.8 5.9 92 0.5 SSE 7 11 4 6 1024.0 1024.0 0.0
09/01:00am 7.0 6.1 6.1 94 0.4 CALM 0 0 0 0 1024.0 1024.0 0.0
09/12:30am 7.7 6.9 6.5 92 0.6 CALM 0 0 0 0 1023.9 1023.9 0.0
09/12:00am 7.6 5.4 5.4 86 1.0 WSW 6 9 3 5 1023.8 1023.8 0.0
 
Date/Time
EST
Temp
°C
App
Temp
°C
Dew
Point
°C
Rel
Hum
%
Delta-T
°C
Wind Press
QNH
hPa
Press
MSL
hPa
Rain since
9am
mm
Dir  Spd
km/h
Gust
km/h
Spd
kts
Gust
kts
08/11:30pm 8.8 6.8 6.4 85 1.1 WSW 6 11 3 6 1023.6 1023.6 0.0
08/11:00pm 9.6 7.6 7.0 84 1.2 SW 7 9 4 5 1023.7 1023.7 0.0
08/10:30pm 10.7 8.6 6.6 76 1.9 WNW 7 11 4 6 1023.6 1023.6 0.0
08/10:00pm 10.4 8.0 6.9 79 1.7 W 9 11 5 6 1023.6 1023.6 0.0
08/09:30pm 11.1 8.0 7.2 77 1.9 WSW 13 17 7 9 1023.2 1023.2 0.0
08/09:00pm 11.9 8.8 7.4 74 2.2 W 13 17 7 9 1023.3 1023.3 0.0
08/08:30pm 11.6 9.7 6.9 73 2.3 NW 6 9 3 5 1023.4 1023.4 0.0
08/08:00pm 12.9 8.5 7.4 69 2.7 WSW 20 28 11 15 1022.8 1022.8 0.0
08/07:30pm 12.2 8.3 7.3 72 2.4 WSW 17 20 9 11 1022.8 1022.8 0.0
08/07:00pm 13.2 9.4 7.4 68 2.8 WSW 17 20 9 11 1022.3 1022.2 0.0
08/06:30pm 13.9 10.4 7.2 64 3.3 W 15 26 8 14 1022.1 1022.0 0.0
08/06:00pm 14.4 10.1 7.7 64 3.3 W 20 28 11 15 1021.5 1021.5 0.0
08/05:30pm 14.6 10.4 7.6 63 3.5 W 19 24 10 13 1021.2 1021.2 0.0
08/05:00pm 15.4 11.1 7.7 60 3.9 W 20 30 11 16 1021.0 1021.0 0.0
08/04:30pm 16.2 11.5 7.7 57 4.3 W 22 32 12 17 1020.8 1020.8 0.0
08/04:00pm 16.8 11.4 8.2 57 4.4 WSW 26 35 14 19 1020.6 1020.6 0.0
08/03:30pm 17.4 12.9 8.5 56 4.6 W 22 35 12 19 1020.5 1020.5 0.0
08/03:00pm 17.4 12.9 8.5 56 4.6 W 22 35 12 19 1020.3 1020.3 0.0
08/02:30pm 17.2 11.7 9.1 59 4.2 W 28 39 15 21 1020.1 1020.1 0.0
08/02:00pm 16.3 13.0 9.7 65 3.5 W 17 24 9 13 1020.5 1020.5 0.0
08/01:30pm 15.8 12.5 9.7 67 3.2 WSW 17 28 9 15 1020.7 1020.7 0.0
08/01:00pm 14.7 11.8 9.5 71 2.7 WSW 15 20 8 11 1021.0 1021.0 0.0
08/12:34pm 14.6 11.7 9.6 72 2.6 WSW 15 20 8 11 1021.1 1021.1 0.0
08/12:30pm 14.6 12.2 10.2 75 2.3 WSW 13 19 7 10 1021.1 1021.1 0.0
08/12:04pm 13.6 10.7 9.6 77 2.1 WSW 15 19 8 10 1021.5 1021.5 0.0
08/12:00pm 13.6 11.1 9.6 77 2.1 WSW 13 19 7 10 1021.5 1021.5 0.0
08/11:59am 13.6 11.0 9.5 76 2.1 WSW 13 20 7 11 1021.7 1021.6 0.0
08/11:30am 12.7 9.7 9.3 80 1.7 W 15 22 8 12 1021.8 1021.7 0.0
08/11:00am 12.1 8.1 9.1 82 1.5 W 20 28 11 15 1021.7 1021.6 0.0
08/10:30am 11.4 7.9 8.8 84 1.3 W 17 24 9 13 1021.9 1021.8 0.0
08/10:00am 10.8 6.3 8.7 87 1.0 W 22 32 12 17 1021.9 1021.8 0.0
08/09:30am 10.7 6.2 8.5 86 1.1 W 22 32 12 17 1022.2 1022.1 0.0
08/09:00am 10.5 6.4 8.6 88 0.9 W 20 28 11 15 1022.1 1022.0 0.0
08/08:30am 10.2 6.7 8.6 90 0.8 W 17 28 9 15 1022.0 1021.9 0.0
08/08:00am 10.2 6.1 7.8 85 1.2 W 19 28 10 15 1021.9 1021.8 0.0
08/07:30am 10.2 5.7 7.1 81 1.5 W 20 32 11 17 1021.5 1021.5 0.0
08/07:00am 10.2 6.3 6.9 80 1.6 WNW 17 30 9 16 1021.4 1021.4 0.0
08/06:30am 10.2 6.2 6.7 79 1.7 WNW 17 26 9 14 1021.3 1021.3 0.0
08/06:00am 10.1 6.5 6.6 79 1.6 WNW 15 22 8 12 1021.4 1021.4 0.0
08/05:30am 10.2 6.5 6.4 77 1.8 W 15 22 8 12 1021.2 1021.2 0.0
08/05:00am 10.1 6.7 6.1 76 1.9 W 13 17 7 9 1021.2 1021.2 0.0
08/04:30am 10.0 7.4 6.2 77 1.8 WNW 9 15 5 8 1021.0 1021.0 0.0
08/04:00am 9.5 7.0 6.4 81 1.4 W 9 15 5 8 1021.0 1021.0 0.0
08/03:32am 9.5 5.8 6.4 81 1.5 W 15 24 8 13 1021.3 1021.3 0.0
08/03:31am 9.5 5.8 6.4 81 1.5 W 15 24 8 13 1021.2 1021.2 0.0
08/03:30am 9.5 5.4 6.4 81 1.5 W 17 24 9 13 1021.2 1021.2 0.0
08/03:00am 9.6 7.0 6.1 79 1.6 W 9 20 5 11 1021.3 1021.3 0.0
08/02:30am 9.5 7.3 6.2 80 1.5 WSW 7 11 4 6 1021.4 1021.4 0.0
08/02:00am 9.6 6.2 6.0 78 1.7 W 13 19 7 10 1021.7 1021.6 0.0
08/01:54am 9.6 6.2 6.0 78 1.7 WSW 13 19 7 10 1021.7 1021.6 0.0
08/01:30am 9.5 7.4 5.9 78 1.7 W 6 15 3 8 1021.8 1021.7 0.0
08/01:00am 9.4 7.2 5.4 76 1.8 SW 6 9 3 5 1022.1 1022.0 0.0
08/12:30am 9.5 6.7 5.3 75 1.9 WNW 9 17 5 9 1022.3 1022.2 0.0
08/12:00am 9.2 6.8 5.2 76 1.8 NNW 7 11 4 6 1022.5 1022.5 0.0
 
Date/Time
EST
Temp
°C
App
Temp
°C
Dew
Point
°C
Rel
Hum
%
Delta-T
°C
Wind Press
QNH
hPa
Press
MSL
hPa
Rain since
9am
mm
Dir  Spd
km/h
Gust
km/h
Spd
kts
Gust
kts
07/11:30pm 9.2 6.4 5.0 75 1.9 WNW 9 15 5 8 1022.6 1022.6 0.0
07/11:00pm 8.4 6.1 4.6 77 1.7 N 6 7 3 4 1022.8 1022.8 0.0
07/10:30pm 8.5 5.6 4.7 77 1.7 W 9 17 5 9 1022.8 1022.8 0.0
07/10:00pm 9.3 6.0 4.7 73 2.1 W 11 19 6 10 1023.3 1023.3 0.0
07/09:30pm 9.1 5.4 4.5 73 2.1 WNW 13 17 7 9 1023.2 1023.2 0.0
07/09:00pm 9.1 5.0 4.5 73 2.0 W 15 24 8 13 1023.2 1023.2 0.0
07/08:30pm 8.6 4.7 3.6 71 2.2 W 13 19 7 10 1022.9 1022.9 0.0
07/08:00pm 9.2 5.0 3.6 68 2.4 WNW 15 20 8 11 1023.0 1023.0 0.0
07/07:30pm 9.6 5.0 3.6 66 2.6 W 17 20 9 11 1022.9 1022.9 0.0
07/07:00pm 9.6 5.0 3.6 66 2.6 W 17 22 9 12 1022.6 1022.6 0.0
07/06:30pm 9.6 5.6 3.1 64 2.8 W 13 17 7 9 1022.5 1022.5 0.0
07/06:00pm 9.6 5.2 2.9 63 2.9 W 15 20 8 11 1022.2 1022.1 0.0
07/05:30pm 9.5 4.7 2.6 62 3.0 WSW 17 24 9 13 1022.0 1021.9 0.0
07/05:00pm 9.9 3.4 2.5 60 3.2 WSW 26 37 14 20 1021.9 1021.8 0.0
07/04:30pm 10.3 2.5 1.9 56 3.6 WSW 32 43 17 23 1021.4 1021.4 0.0
07/04:00pm 10.5 3.1 2.1 56 3.6 WSW 30 43 16 23 1021.4 1021.4 0.0
07/03:30pm 11.2 3.7 1.2 50 4.2 WSW 30 41 16 22 1021.1 1021.1 0.0
07/03:04pm 12.0 4.1 1.1 47 4.6 WSW 32 50 17 27 1020.9 1020.9 0.0
07/03:00pm 12.1 4.0 1.1 47 4.7 WSW 33 50 18 27 1020.9 1020.9 0.0
07/02:30pm 11.6 3.7 1.3 49 4.4 WSW 32 44 17 24 1020.8 1020.8 0.0
07/02:00pm 11.8 3.4 1.7 50 4.3 WSW 35 43 19 23 1020.5 1020.5 0.0
07/01:30pm 11.4 5.5 1.4 50 4.2 WSW 22 37 12 20 1020.4 1020.4 0.0
07/01:00pm 11.9 5.4 2.6 53 4.1 W 26 35 14 19 1020.3 1020.3 0.0
07/12:30pm 12.4 5.2 3.1 53 4.1 WSW 30 41 16 22 1020.4 1020.4 0.0
07/12:00pm 10.7 5.2 2.0 55 3.7 WSW 20 32 11 17 1020.7 1020.7 0.0
07/11:30am 10.8 5.0 2.1 55 3.7 WSW 22 35 12 19 1020.9 1020.9 0.0
07/11:00am 10.1 3.9 2.2 58 3.4 WSW 24 32 13 17 1020.8 1020.8 0.0
07/10:30am 9.6 3.5 2.7 62 3.0 WSW 24 35 13 19 1020.6 1020.6 0.0
07/10:00am 8.8 3.4 2.4 64 2.7 WSW 20 28 11 15 1020.5 1020.5 0.0
07/09:30am 8.4 2.4 3.3 70 2.2 WSW 24 32 13 17 1020.3 1020.3 0.0
07/09:00am 7.7 1.5 2.2 68 2.3 WSW 24 33 13 18 1019.9 1019.9 1.2
07/08:30am 7.1 1.0 2.6 73 1.9 W 24 35 13 19 1019.6 1019.6 1.2
07/08:00am 6.5 0.3 2.0 73 1.8 W 24 32 13 17 1019.2 1019.2 1.2
07/07:30am 6.1 0.8 1.8 74 1.7 W 19 26 10 14 1018.7 1018.7 1.2
07/07:00am 5.8 0.9 1.7 75 1.7 WNW 17 24 9 13 1018.5 1018.5 1.2
07/06:30am 5.8 1.2 1.3 73 1.8 W 15 22 8 12 1018.1 1018.1 1.2
07/06:00am 6.4 0.0 1.1 69 2.1 W 24 35 13 19 1017.6 1017.6 1.2
07/05:30am 6.6 0.7 1.5 70 2.1 WSW 22 30 12 16 1017.5 1017.5 1.2
07/05:00am 7.0 -0.1 1.3 67 2.3 W 28 35 15 19 1017.2 1017.1 1.2
07/04:30am 7.5 1.4 3.0 73 1.9 WSW 24 39 13 21 1016.7 1016.6 1.2
07/04:00am 8.0 1.7 3.5 73 1.9 WSW 26 39 14 21 1016.3 1016.2 1.2
07/03:30am 8.8 3.4 4.6 75 1.9 WSW 22 32 12 17 1016.3 1016.2 1.2
07/03:00am 8.7 3.0 4.7 76 1.8 WSW 24 33 13 18 1016.2 1016.1 1.2
07/02:30am 9.4 4.5 5.2 75 1.9 W 20 30 11 16 1016.4 1016.3 1.2
07/02:08am 9.6 3.0 6.0 78 1.7 W 30 39 16 21 1016.2 1016.1 1.2
07/02:00am 10.1 2.5 5.9 75 2.0 WSW 35 54 19 29 1016.1 1016.0 1.0
07/01:56am 10.2 2.7 6.5 78 1.7 WSW 35 54 19 29 1016.0 1015.9 1.0
07/01:50am 10.6 4.1 6.6 76 1.9 W 30 50 16 27 1015.8 1015.7 1.0
07/01:30am 11.6 7.8 9.9 89 0.9 NW 20 30 11 16 1015.5 1015.4 0.8
07/01:00am 11.2 8.0 9.8 91 0.7 NNW 17 28 9 15 1015.7 1015.6 0.8
07/12:48am 11.1 8.7 9.9 92 0.6 NW 13 22 7 12 1016.0 1015.9 0.8
07/12:32am 10.9 8.4 9.8 93 0.6 NNW 13 17 7 9 1016.2 1016.1 0.6
07/12:30am 10.9 8.4 9.8 93 0.6 NNW 13 17 7 9 1016.2 1016.1 0.6
07/12:19am 11.1 9.0 9.7 91 0.7 NNW 11 15 6 8 1016.4 1016.3 0.4
07/12:00am 11.4 9.2 9.5 88 1.0 NW 11 19 6 10 1016.6 1016.5 0.2
 
Date/Time
EST
Temp
°C
App
Temp
°C
Dew
Point
°C
Rel
Hum
%
Delta-T
°C
Wind Press
QNH
hPa
Press
MSL
hPa
Rain since
9am
mm
Dir  Spd
km/h
Gust
km/h
Spd
kts
Gust
kts
06/11:55pm 11.5 9.0 9.6 88 1.0 NW 13 24 7 13 1016.7 1016.6 0.2
06/11:42pm 12.0 9.4 9.2 83 1.4 NW 13 24 7 13 1016.9 1016.8 0.0
06/11:30pm 12.5 9.8 8.8 78 1.9 NW 13 20 7 11 1017.0 1016.9 0.0
06/11:00pm 12.8 10.3 8.1 73 2.3 NNW 11 17 6 9 1017.1 1017.0 0.0
06/10:30pm 12.9 10.8 8.2 73 2.3 NNW 9 13 5 7 1017.5 1017.5 0.0
06/10:00pm 12.7 10.6 8.4 75 2.1 NNW 9 13 5 7 1017.8 1017.8 0.0
06/09:30pm 12.7 11.1 8.2 74 2.2 NW 6 7 3 4 1018.3 1018.3 0.0
06/09:00pm 12.6 11.1 8.5 76 2.1 NNW 6 7 3 4 1018.7 1018.7 0.0
06/08:30pm 12.5 11.8 8.4 76 2.0 NE 2 7 1 4 1018.8 1018.8 0.0
06/08:00pm 12.5 12.3 9.0 79 1.8 CALM 0 0 0 0 1018.6 1018.6 0.0
06/07:30pm 12.7 11.2 8.6 76 2.1 NNW 6 7 3 4 1018.8 1018.8 0.0
06/07:00pm 12.9 11.2 8.4 74 2.3 NNW 7 9 4 5 1019.1 1019.1 0.0
06/06:30pm 13.1 11.3 8.0 71 2.5 NNW 7 9 4 5 1019.2 1019.2 0.0

Other formats

Comma delimited format used in spreadsheet applications
http://www.bom.gov.au/fwo/IDN60801/IDN60801.95896.axf

JavaScript Object Notation format (JSON) in row-major order
http://www.bom.gov.au/fwo/IDN60801/IDN60801.95896.json

Data quality

Most of these data are generated automatically and are frequently updated. Quality checks on data are not normally performed. It is possible for incorrect values to appear. Refer to information at About Latest Weather Observations and please check the disclaimer before using these data.